createdAt,value
2023-04-15T00:00:53.797Z,4.50
2023-04-15T00:05:47.326Z,4.40
2023-04-15T00:10:40.740Z,4.30
2023-04-15T00:15:35.459Z,4.50
2023-04-15T00:20:28.884Z,4.60
2023-04-15T00:25:22.199Z,4.40
2023-04-15T00:30:15.589Z,4.40
2023-04-15T00:35:10.951Z,4.20
2023-04-15T00:40:05.925Z,4.10
2023-04-15T00:44:59.321Z,4.00
2023-04-15T00:49:52.884Z,3.90
2023-04-15T00:54:47.595Z,4.00
2023-04-15T00:59:41.173Z,4.00
2023-04-15T01:04:34.550Z,3.90
2023-04-15T01:09:28.310Z,3.90
2023-04-15T01:14:22.990Z,3.90
2023-04-15T01:19:19.093Z,3.90
2023-04-15T01:24:14.784Z,3.80
2023-04-15T01:29:09.597Z,3.90
2023-04-15T01:34:02.917Z,3.90
2023-04-15T01:38:58.550Z,3.80
2023-04-15T01:43:52.599Z,3.80
2023-04-15T01:48:47.325Z,3.80
2023-04-15T01:53:40.662Z,3.70
2023-04-15T01:58:34.186Z,3.60
2023-04-15T02:03:27.905Z,3.50
2023-04-15T02:08:22.689Z,3.50
2023-04-15T02:13:17.063Z,3.50
2023-04-15T02:18:10.416Z,3.40
2023-04-15T02:23:07.312Z,3.20
2023-04-15T02:28:02.041Z,3.20
2023-04-15T02:32:56.021Z,3.10
2023-04-15T02:37:49.399Z,3.20
2023-04-15T02:42:44.382Z,3.10
2023-04-15T02:47:41.441Z,3.20
2023-04-15T02:52:34.769Z,3.20
2023-04-15T02:57:29.560Z,3.30
2023-04-15T03:02:23.066Z,3.10
2023-04-15T03:07:19.484Z,3.00
2023-04-15T03:12:12.819Z,3.10
2023-04-15T03:17:06.087Z,3.10
2023-04-15T03:21:59.357Z,3.00
2023-04-15T03:26:55.165Z,3.00
2023-04-15T03:31:48.457Z,3.00
2023-04-15T03:36:41.818Z,3.00
2023-04-15T03:41:35.116Z,3.00
2023-04-15T03:46:29.826Z,2.90
2023-04-15T03:51:23.216Z,3.00
2023-04-15T03:56:16.523Z,3.00
2023-04-15T04:01:10.811Z,3.10
2023-04-15T04:06:05.605Z,3.00
2023-04-15T04:10:58.914Z,3.10
2023-04-15T04:15:52.200Z,2.90
2023-04-15T04:20:45.841Z,2.70
2023-04-15T04:25:40.545Z,2.50
2023-04-15T04:30:34.061Z,2.60
2023-04-15T04:35:27.486Z,2.60
2023-04-15T04:40:20.887Z,2.10
2023-04-15T04:45:15.720Z,2.40
2023-04-15T04:50:10.634Z,2.60
2023-04-15T04:55:05.974Z,2.90
2023-04-15T04:59:59.225Z,3.00
2023-04-15T05:04:54.489Z,3.10
2023-04-15T05:09:47.853Z,3.00
2023-04-15T05:14:41.148Z,3.00
2023-04-15T05:19:34.475Z,3.20
2023-04-15T05:24:29.161Z,3.30
2023-04-15T05:29:22.540Z,3.50
2023-04-15T05:34:17.535Z,3.70
2023-04-15T05:39:10.888Z,3.60
2023-04-15T05:44:06.213Z,3.80
2023-04-15T05:48:59.717Z,4.20
2023-04-15T05:53:53.172Z,4.20
2023-04-15T05:58:46.525Z,4.20
2023-04-15T06:03:41.424Z,4.30
2023-04-15T06:08:37.579Z,4.50
2023-04-15T06:13:31.041Z,4.80
2023-04-15T06:18:24.493Z,4.90
2023-04-15T06:23:19.194Z,4.80
2023-04-15T06:28:12.428Z,5.00
2023-04-15T06:33:06.596Z,5.00
2023-04-15T06:37:59.941Z,5.20
2023-04-15T06:42:54.835Z,5.20
2023-04-15T06:47:48.201Z,5.30
2023-04-15T06:52:41.595Z,5.40
2023-04-15T06:57:35.130Z,5.50
2023-04-15T07:02:30.082Z,5.90
2023-04-15T07:07:23.558Z,6.10
2023-04-15T07:12:16.935Z,6.30
2023-04-15T07:17:11.488Z,6.40
2023-04-15T07:22:06.571Z,6.50
2023-04-15T07:27:01.134Z,6.70
2023-04-15T07:31:56.674Z,6.70
2023-04-15T07:36:50.648Z,6.60
2023-04-15T07:41:45.661Z,6.80
2023-04-15T07:46:39.250Z,7.10
2023-04-15T07:51:32.637Z,7.30
2023-04-15T07:56:26.544Z,7.30
2023-04-15T08:01:21.687Z,7.40
2023-04-15T08:06:15.077Z,7.50
2023-04-15T08:11:08.437Z,7.60
2023-04-15T08:16:22.938Z,7.60
2023-04-15T08:21:17.736Z,7.70
2023-04-15T08:26:11.184Z,7.70
2023-04-15T08:31:04.609Z,7.70
2023-04-15T08:35:59.394Z,7.70
2023-04-15T08:40:52.871Z,7.70
2023-04-15T08:45:48.727Z,7.80
2023-04-15T08:50:42.443Z,7.90
2023-04-15T08:55:44.740Z,7.90
2023-04-15T09:00:38.885Z,8.00
2023-04-15T09:05:34.649Z,7.80
2023-04-15T09:10:28.718Z,7.90
2023-04-15T09:15:25.816Z,8.20
2023-04-15T09:20:19.820Z,8.50
2023-04-15T09:25:32.165Z,8.70
2023-04-15T09:30:30.113Z,8.70
2023-04-15T09:35:26.277Z,9.00
2023-04-15T09:40:34.060Z,9.10
2023-04-15T09:45:29.634Z,9.20
2023-04-15T09:50:23.137Z,9.40
2023-04-15T09:55:20.398Z,9.60
2023-04-15T10:00:15.247Z,9.50
2023-04-15T10:05:15.077Z,9.80
2023-04-15T10:10:10.176Z,9.80
2023-04-15T10:15:08.057Z,10.00
2023-04-15T10:20:03.652Z,10.00
2023-04-15T10:24:59.941Z,9.90
2023-04-15T10:29:53.416Z,10.00
2023-04-15T10:34:48.540Z,10.10
2023-04-15T10:39:44.607Z,10.30
2023-04-15T10:44:40.417Z,10.40
2023-04-15T10:49:33.860Z,10.50
2023-04-15T10:54:34.659Z,10.70
2023-04-15T10:59:30.499Z,10.70
2023-04-15T11:04:57.530Z,10.80
2023-04-15T11:09:50.958Z,10.90
2023-04-15T11:14:44.399Z,10.80
2023-04-15T11:19:39.216Z,10.80
2023-04-15T11:24:33.986Z,10.80
2023-04-15T11:29:32.389Z,10.70
2023-04-15T11:34:25.746Z,10.90
2023-04-15T11:39:24.055Z,11.20
2023-04-15T11:44:21.616Z,11.50
2023-04-15T11:49:28.860Z,11.90
2023-04-15T11:54:22.320Z,12.20
2023-04-15T11:59:15.856Z,12.40
2023-04-15T12:04:15.134Z,12.30
2023-04-15T12:09:13.580Z,12.10
2023-04-15T12:14:14.467Z,12.10
2023-04-15T12:19:11.539Z,12.10
2023-04-15T12:24:09.676Z,11.90
2023-04-15T12:29:05.109Z,11.80
2023-04-15T12:33:59.073Z,11.70
2023-04-15T12:38:52.406Z,11.60
2023-04-15T12:43:47.857Z,11.50
2023-04-15T12:48:41.976Z,11.50
2023-04-15T12:58:56.407Z,11.80
2023-04-15T13:03:51.252Z,11.80
2023-04-15T13:08:57.279Z,11.80
2023-04-15T13:13:52.743Z,11.80
2023-04-15T13:18:47.470Z,11.80
2023-04-15T13:23:40.832Z,11.80
2023-04-15T13:28:34.095Z,11.80
2023-04-15T13:33:27.990Z,11.90
2023-04-15T13:38:22.693Z,11.90
2023-04-15T13:43:16.333Z,12.00
2023-04-15T13:48:09.646Z,12.10
2023-04-15T13:53:02.949Z,12.10
2023-04-15T13:58:00.047Z,12.30
2023-04-15T14:02:53.470Z,12.30
2023-04-15T14:07:47.103Z,12.50
2023-04-15T14:12:40.487Z,12.70
2023-04-15T14:17:38.635Z,12.70
2023-04-15T14:22:32.018Z,12.70
2023-04-15T14:27:25.325Z,12.60
2023-04-15T14:32:18.694Z,12.40
2023-04-15T14:37:13.509Z,12.40
2023-04-15T14:42:06.818Z,12.50
2023-04-15T14:47:00.189Z,12.50
2023-04-15T14:51:53.650Z,12.40
2023-04-15T14:56:48.305Z,12.20
2023-04-15T15:01:41.886Z,12.10
2023-04-15T15:06:35.775Z,12.10
2023-04-15T15:11:29.745Z,12.10
2023-04-15T15:16:24.629Z,12.00
2023-04-15T15:21:18.126Z,11.80
2023-04-15T15:26:11.698Z,11.70
2023-04-15T15:31:06.103Z,11.40
2023-04-15T15:36:01.223Z,11.10
2023-04-15T15:40:54.825Z,11.00
2023-04-15T15:45:51.602Z,11.00
2023-04-15T15:50:45.631Z,11.00
2023-04-15T15:55:40.350Z,11.00
2023-04-15T16:00:33.698Z,10.90
2023-04-15T16:05:27.066Z,10.80
2023-04-15T16:10:20.544Z,10.70
2023-04-15T16:15:15.377Z,10.60
2023-04-15T16:20:10.178Z,10.50
2023-04-15T16:25:03.813Z,10.40
2023-04-15T16:29:57.182Z,10.30
2023-04-15T16:34:53.206Z,10.30
2023-04-15T16:39:46.462Z,10.30
2023-04-15T16:44:39.994Z,10.10
2023-04-15T16:49:34.953Z,10.10
2023-04-15T16:54:30.249Z,10.00
2023-04-15T16:59:23.575Z,9.90
2023-04-15T17:04:16.912Z,9.70
2023-04-15T17:09:10.255Z,9.60
2023-04-15T17:14:05.872Z,9.60
2023-04-15T17:18:59.219Z,9.50
2023-04-15T17:23:53.128Z,9.60
2023-04-15T17:28:46.671Z,9.60
2023-04-15T17:34:02.141Z,9.60
2023-04-15T17:38:57.688Z,9.50
2023-04-15T17:43:51.024Z,9.50
2023-04-15T17:48:45.799Z,9.40
2023-04-15T17:53:39.126Z,9.50
2023-04-15T17:58:32.924Z,9.40
2023-04-15T18:03:26.543Z,9.30
2023-04-15T18:08:21.495Z,9.30
2023-04-15T18:13:14.804Z,9.30
2023-04-15T18:18:08.117Z,9.20
2023-04-15T18:23:01.564Z,9.10
2023-04-15T18:27:56.491Z,9.00
2023-04-15T18:32:50.061Z,8.90
2023-04-15T18:37:43.438Z,8.80
2023-04-15T18:42:36.776Z,8.80
2023-04-15T18:47:31.612Z,8.50
2023-04-15T18:52:24.947Z,8.60
2023-04-15T18:57:28.767Z,8.60
2023-04-15T19:02:25.820Z,8.60
2023-04-15T19:07:20.711Z,8.60
2023-04-15T19:12:14.035Z,8.60
2023-04-15T19:17:07.374Z,8.60
2023-04-15T19:22:01.694Z,8.60
2023-04-15T19:26:57.236Z,8.60
2023-04-15T19:31:50.625Z,8.70
2023-04-15T19:36:44.324Z,8.50
2023-04-15T19:41:39.224Z,8.30
2023-04-15T19:46:34.188Z,8.20
2023-04-15T19:51:28.584Z,8.30
2023-04-15T19:56:23.899Z,8.30
2023-04-15T20:01:17.392Z,8.40
2023-04-15T20:06:12.181Z,8.20
2023-04-15T20:11:05.627Z,8.00
2023-04-15T20:15:59.045Z,7.80
2023-04-15T20:20:54.824Z,7.70
2023-04-15T20:26:07.144Z,7.90
2023-04-15T20:31:05.007Z,8.00
2023-04-15T20:36:01.528Z,8.00
2023-04-15T20:40:54.902Z,8.00
2023-04-15T20:45:51.487Z,8.00
2023-04-15T20:50:44.882Z,8.00
2023-04-15T20:55:38.186Z,8.00
2023-04-15T21:00:33.080Z,8.10
2023-04-15T21:05:30.492Z,8.00
2023-04-15T21:10:23.902Z,7.90
2023-04-15T21:15:17.571Z,7.80
2023-04-15T21:20:12.711Z,7.80
2023-04-15T21:25:08.814Z,7.80
2023-04-15T21:30:02.363Z,7.80
2023-04-15T21:34:55.749Z,7.80
2023-04-15T21:39:49.173Z,7.80
2023-04-15T21:44:43.843Z,7.80
2023-04-15T21:49:37.177Z,7.60
2023-04-15T21:54:31.247Z,7.60
2023-04-15T21:59:24.705Z,7.70
2023-04-15T22:04:19.465Z,7.60
2023-04-15T22:09:14.419Z,7.50
2023-04-15T22:14:07.879Z,7.40
2023-04-15T22:19:02.639Z,7.40
2023-04-15T22:24:33.282Z,7.50
2023-04-15T22:29:11.074Z,7.50
2023-04-15T22:34:04.409Z,7.60
2023-04-15T22:38:59.100Z,7.50
2023-04-15T22:43:52.470Z,7.60
2023-04-15T22:48:45.979Z,7.60
2023-04-15T22:53:39.233Z,7.50
2023-04-15T22:58:33.853Z,7.50
2023-04-15T23:03:27.238Z,7.50
2023-04-15T23:08:23.869Z,7.50
2023-04-15T23:13:17.245Z,7.40
2023-04-15T23:18:11.961Z,7.30
2023-04-15T23:23:05.295Z,7.30
2023-04-15T23:27:58.648Z,7.20
2023-04-15T23:32:51.991Z,7.20
2023-04-15T23:37:46.717Z,7.20
2023-04-15T23:42:40.050Z,7.20
2023-04-15T23:47:33.437Z,7.20
2023-04-15T23:52:26.892Z,7.10
2023-04-15T23:57:21.567Z,7.10
